sensor_id;sensor_type;location;lat;lon;timestamp;pressure;altitude;pressure_sealevel;temperature;humidity
10482;BME280;5288;42.334;23.876;2023-06-10T00:02:17;56170.00;;;-140.56;95.13
10482;BME280;5288;42.334;23.876;2023-06-10T00:04:44;56195.69;;;-140.56;94.56
10482;BME280;5288;42.334;23.876;2023-06-10T00:07:12;56223.34;;;-140.56;94.32
10482;BME280;5288;42.334;23.876;2023-06-10T00:09:39;56207.53;;;-140.56;94.13
10482;BME280;5288;42.334;23.876;2023-06-10T00:12:07;56221.38;;;-140.56;93.61
10482;BME280;5288;42.334;23.876;2023-06-10T00:14:39;56185.81;;;-140.56;93.05
10482;BME280;5288;42.334;23.876;2023-06-10T00:17:06;56241.13;;;-140.56;92.50
10482;BME280;5288;42.334;23.876;2023-06-10T00:19:36;56195.69;;;-140.56;93.03
10482;BME280;5288;42.334;23.876;2023-06-10T00:22:07;56201.63;;;-140.56;93.68
10482;BME280;5288;42.334;23.876;2023-06-10T00:24:34;56189.75;;;-140.56;92.59
10482;BME280;5288;42.334;23.876;2023-06-10T00:27:01;56203.59;;;-140.56;91.72
10482;BME280;5288;42.334;23.876;2023-06-10T00:29:28;56211.50;;;-140.56;90.94
10482;BME280;5288;42.334;23.876;2023-06-10T00:31:55;56179.88;;;-140.56;91.30
10482;BME280;5288;42.334;23.876;2023-06-10T00:34:23;56160.13;;;-140.56;91.00
10482;BME280;5288;42.334;23.876;2023-06-10T00:36:52;56229.28;;;-140.56;90.05
10482;BME280;5288;42.334;23.876;2023-06-10T00:39:19;56195.69;;;-140.56;89.93
10482;BME280;5288;42.334;23.876;2023-06-10T00:41:46;56197.66;;;-140.56;89.63
10482;BME280;5288;42.334;23.876;2023-06-10T00:44:13;56201.63;;;-140.56;89.27
10482;BME280;5288;42.334;23.876;2023-06-10T00:46:40;56187.78;;;-140.56;90.13
10482;BME280;5288;42.334;23.876;2023-06-10T00:49:07;56225.31;;;-140.56;89.89
10482;BME280;5288;42.334;23.876;2023-06-10T00:51:35;56177.91;;;-140.56;90.05
10482;BME280;5288;42.334;23.876;2023-06-10T00:54:04;56193.72;;;-140.56;89.05
10482;BME280;5288;42.334;23.876;2023-06-10T00:56:33;56215.44;;;-140.56;89.41
10482;BME280;5288;42.334;23.876;2023-06-10T00:59:01;56195.69;;;-140.56;89.60
10482;BME280;5288;42.334;23.876;2023-06-10T01:01:28;56217.41;;;-140.56;89.53
10482;BME280;5288;42.334;23.876;2023-06-10T01:03:56;56201.63;;;-140.56;90.50
10482;BME280;5288;42.334;23.876;2023-06-10T01:06:32;56170.00;;;-140.56;91.06
10482;BME280;5288;42.334;23.876;2023-06-10T01:09:11;56195.69;;;-140.56;91.88
10482;BME280;5288;42.334;23.876;2023-06-10T01:11:45;56231.25;;;-140.56;92.38
10482;BME280;5288;42.334;23.876;2023-06-10T01:14:14;56201.63;;;-140.56;93.38
10482;BME280;5288;42.334;23.876;2023-06-10T01:16:42;56195.69;;;-140.56;93.74
10482;BME280;5288;42.334;23.876;2023-06-10T01:19:11;56227.31;;;-140.56;93.78
10482;BME280;5288;42.334;23.876;2023-06-10T01:21:39;56199.63;;;-140.56;93.54
10482;BME280;5288;42.334;23.876;2023-06-10T01:24:07;56219.41;;;-140.56;93.33
10482;BME280;5288;42.334;23.876;2023-06-10T01:26:36;56229.28;;;-140.56;93.14
10482;BME280;5288;42.334;23.876;2023-06-10T01:29:07;56253.00;;;-140.56;94.38
10482;BME280;5288;42.334;23.876;2023-06-10T01:31:42;56195.69;;;-140.56;94.79
10482;BME280;5288;42.334;23.876;2023-06-10T01:34:14;56187.78;;;-140.56;95.45
10482;BME280;5288;42.334;23.876;2023-06-10T01:36:46;56219.41;;;-140.56;95.33
10482;BME280;5288;42.334;23.876;2023-06-10T01:39:14;56185.81;;;-140.56;95.93
10482;BME280;5288;42.334;23.876;2023-06-10T01:41:42;56227.31;;;-140.56;95.37
10482;BME280;5288;42.334;23.876;2023-06-10T01:44:10;56199.63;;;-140.56;94.74
10482;BME280;5288;42.334;23.876;2023-06-10T01:46:37;56225.31;;;-140.56;95.06
10482;BME280;5288;42.334;23.876;2023-06-10T01:49:04;56191.72;;;-140.56;95.16
10482;BME280;5288;42.334;23.876;2023-06-10T01:51:31;56195.69;;;-140.56;94.52
10482;BME280;5288;42.334;23.876;2023-06-10T01:53:59;56225.31;;;-140.56;95.05
10482;BME280;5288;42.334;23.876;2023-06-10T01:56:26;56199.63;;;-140.56;95.03
10482;BME280;5288;42.334;23.876;2023-06-10T01:58:53;56235.22;;;-140.56;95.49
10482;BME280;5288;42.334;23.876;2023-06-10T02:01:24;56251.03;;;-140.56;95.57
10482;BME280;5288;42.334;23.876;2023-06-10T02:03:51;56211.50;;;-140.56;95.90
10482;BME280;5288;42.334;23.876;2023-06-10T02:06:19;56233.22;;;-140.56;95.84
10482;BME280;5288;42.334;23.876;2023-06-10T02:08:46;56229.28;;;-140.56;96.71
10482;BME280;5288;42.334;23.876;2023-06-10T02:11:14;56211.50;;;-140.56;97.20
10482;BME280;5288;42.334;23.876;2023-06-10T02:13:41;56207.53;;;-140.56;97.49
10482;BME280;5288;42.334;23.876;2023-06-10T02:16:10;56235.22;;;-140.56;96.98
10482;BME280;5288;42.334;23.876;2023-06-10T02:18:38;56189.75;;;-140.56;97.44
10482;BME280;5288;42.334;23.876;2023-06-10T02:21:08;56237.19;;;-140.56;97.58
10482;BME280;5288;42.334;23.876;2023-06-10T02:23:35;56239.16;;;-140.56;97.88
10482;BME280;5288;42.334;23.876;2023-06-10T02:26:02;56241.13;;;-140.56;97.61
10482;BME280;5288;42.334;23.876;2023-06-10T02:28:31;56217.41;;;-140.56;98.22
10482;BME280;5288;42.334;23.876;2023-06-10T02:30:58;56227.31;;;-140.56;97.94
10482;BME280;5288;42.334;23.876;2023-06-10T02:33:25;56245.09;;;-140.56;97.56
10482;BME280;5288;42.334;23.876;2023-06-10T02:35:52;56225.31;;;-140.56;97.19
10482;BME280;5288;42.334;23.876;2023-06-10T02:38:19;56239.16;;;-140.56;96.96
10482;BME280;5288;42.334;23.876;2023-06-10T02:40:47;56213.47;;;-140.56;96.91
10482;BME280;5288;42.334;23.876;2023-06-10T02:43:14;56207.53;;;-140.56;96.59
10482;BME280;5288;42.334;23.876;2023-06-10T02:45:42;56227.31;;;-140.56;97.55
10482;BME280;5288;42.334;23.876;2023-06-10T02:48:09;56227.31;;;-140.56;97.70
10482;BME280;5288;42.334;23.876;2023-06-10T02:50:36;56235.22;;;-140.56;98.07
10482;BME280;5288;42.334;23.876;2023-06-10T02:53:06;56213.47;;;-140.56;97.62
10482;BME280;5288;42.334;23.876;2023-06-10T02:55:33;56219.41;;;-140.56;97.08
10482;BME280;5288;42.334;23.876;2023-06-10T02:58:01;56215.44;;;-140.56;96.25
10482;BME280;5288;42.334;23.876;2023-06-10T03:00:28;56254.97;;;-140.56;95.51
10482;BME280;5288;42.334;23.876;2023-06-10T03:02:57;56213.47;;;-140.56;96.02
10482;BME280;5288;42.334;23.876;2023-06-10T03:05:26;56235.22;;;-140.56;95.50
10482;BME280;5288;42.334;23.876;2023-06-10T03:07:53;56205.56;;;-140.56;95.40
10482;BME280;5288;42.334;23.876;2023-06-10T03:10:20;56217.41;;;-140.56;95.81
10482;BME280;5288;42.334;23.876;2023-06-10T03:12:50;56270.78;;;-140.56;96.03
10482;BME280;5288;42.334;23.876;2023-06-10T03:15:17;56207.53;;;-140.56;96.29
10482;BME280;5288;42.334;23.876;2023-06-10T03:17:47;56254.97;;;-140.56;96.08
10482;BME280;5288;42.334;23.876;2023-06-10T03:20:15;56245.09;;;-140.56;96.68
10482;BME280;5288;42.334;23.876;2023-06-10T03:22:42;56227.31;;;-140.56;96.49
10482;BME280;5288;42.334;23.876;2023-06-10T03:25:09;56211.50;;;-140.56;96.17
10482;BME280;5288;42.334;23.876;2023-06-10T03:27:39;56245.09;;;-140.56;95.62
10482;BME280;5288;42.334;23.876;2023-06-10T03:30:07;56223.34;;;-140.56;95.59
10482;BME280;5288;42.334;23.876;2023-06-10T03:32:34;56223.34;;;-140.56;96.08
10482;BME280;5288;42.334;23.876;2023-06-10T03:35:02;56235.22;;;-140.56;96.43
10482;BME280;5288;42.334;23.876;2023-06-10T03:37:31;56225.31;;;-140.56;96.32
10482;BME280;5288;42.334;23.876;2023-06-10T03:39:58;56199.63;;;-140.56;96.42
10482;BME280;5288;42.334;23.876;2023-06-10T03:42:25;56211.50;;;-140.56;96.15
10482;BME280;5288;42.334;23.876;2023-06-10T03:44:52;56181.84;;;-140.56;95.93
10482;BME280;5288;42.334;23.876;2023-06-10T03:47:19;56203.59;;;-140.56;94.76
10482;BME280;5288;42.334;23.876;2023-06-10T03:49:49;56219.41;;;-140.56;94.58
10482;BME280;5288;42.334;23.876;2023-06-10T03:52:17;56179.88;;;-140.56;93.81
10482;BME280;5288;42.334;23.876;2023-06-10T03:54:46;56233.22;;;-140.56;93.06
10482;BME280;5288;42.334;23.876;2023-06-10T03:57:15;56203.59;;;-140.56;92.75
10482;BME280;5288;42.334;23.876;2023-06-10T03:59:42;56183.81;;;-140.56;93.45
10482;BME280;5288;42.334;23.876;2023-06-10T04:02:09;56181.84;;;-140.56;93.72
10482;BME280;5288;42.334;23.876;2023-06-10T04:04:36;56227.31;;;-140.56;93.47
10482;BME280;5288;42.334;23.876;2023-06-10T04:07:04;56211.50;;;-140.56;92.86
10482;BME280;5288;42.334;23.876;2023-06-10T04:09:31;56189.75;;;-140.56;93.34
10482;BME280;5288;42.334;23.876;2023-06-10T04:12:00;56191.72;;;-140.56;93.52
10482;BME280;5288;42.334;23.876;2023-06-10T04:14:28;56189.75;;;-140.56;93.75
10482;BME280;5288;42.334;23.876;2023-06-10T04:16:54;56215.44;;;-140.56;92.93
10482;BME280;5288;42.334;23.876;2023-06-10T04:19:32;56177.91;;;-140.56;92.34
10482;BME280;5288;42.334;23.876;2023-06-10T04:22:00;56177.91;;;-140.56;92.33
10482;BME280;5288;42.334;23.876;2023-06-10T04:24:27;56173.94;;;-140.56;91.45
10482;BME280;5288;42.334;23.876;2023-06-10T04:26:54;56223.34;;;-140.56;91.45
10482;BME280;5288;42.334;23.876;2023-06-10T04:29:23;56185.81;;;-140.56;91.50
10482;BME280;5288;42.334;23.876;2023-06-10T04:31:50;56207.53;;;-140.56;91.52
10482;BME280;5288;42.334;23.876;2023-06-10T04:34:20;56185.81;;;-140.56;92.00
10482;BME280;5288;42.334;23.876;2023-06-10T04:36:47;56171.97;;;-140.56;92.39
10482;BME280;5288;42.334;23.876;2023-06-10T04:39:16;56193.72;;;-140.56;91.99
10482;BME280;5288;42.334;23.876;2023-06-10T04:41:44;56191.72;;;-140.56;92.01
10482;BME280;5288;42.334;23.876;2023-06-10T04:44:11;56209.50;;;-140.56;92.03
10482;BME280;5288;42.334;23.876;2023-06-10T04:46:39;56164.06;;;-140.56;92.01
10482;BME280;5288;42.334;23.876;2023-06-10T04:49:06;56185.81;;;-140.56;91.83
10482;BME280;5288;42.334;23.876;2023-06-10T04:51:33;56203.59;;;-140.56;92.06
10482;BME280;5288;42.334;23.876;2023-06-10T04:54:00;56175.91;;;-140.56;91.62
10482;BME280;5288;42.334;23.876;2023-06-10T04:56:32;56171.97;;;-140.56;91.97
10482;BME280;5288;42.334;23.876;2023-06-10T04:58:59;56207.53;;;-140.56;92.37
10482;BME280;5288;42.334;23.876;2023-06-10T05:01:30;56193.72;;;-140.56;92.96
10482;BME280;5288;42.334;23.876;2023-06-10T05:03:58;56197.66;;;-140.56;92.79
10482;BME280;5288;42.334;23.876;2023-06-10T05:06:25;56171.97;;;-140.56;92.52
10482;BME280;5288;42.334;23.876;2023-06-10T05:08:52;56179.88;;;-140.56;92.52
10482;BME280;5288;42.334;23.876;2023-06-10T05:11:19;56231.25;;;-140.56;92.57
10482;BME280;5288;42.334;23.876;2023-06-10T05:13:46;56171.97;;;-140.56;92.43
10482;BME280;5288;42.334;23.876;2023-06-10T05:16:21;56197.66;;;-140.56;92.47
10482;BME280;5288;42.334;23.876;2023-06-10T05:18:48;56164.06;;;-140.56;92.24
10482;BME280;5288;42.334;23.876;2023-06-10T05:21:18;56189.75;;;-140.56;91.95
10482;BME280;5288;42.334;23.876;2023-06-10T05:23:47;56179.88;;;-140.56;91.25
10482;BME280;5288;42.334;23.876;2023-06-10T05:26:14;56183.81;;;-140.56;90.41
10482;BME280;5288;42.334;23.876;2023-06-10T05:28:41;56179.88;;;-140.56;89.43
10482;BME280;5288;42.334;23.876;2023-06-10T05:31:08;56181.84;;;-140.56;88.43
10482;BME280;5288;42.334;23.876;2023-06-10T05:33:48;56181.84;;;-140.56;87.62
10482;BME280;5288;42.334;23.876;2023-06-10T05:36:16;56146.28;;;-140.56;87.19
10482;BME280;5288;42.334;23.876;2023-06-10T05:38:44;56181.84;;;-140.56;87.63
10482;BME280;5288;42.334;23.876;2023-06-10T05:41:11;56152.22;;;-140.56;87.30
10482;BME280;5288;42.334;23.876;2023-06-10T05:43:38;56171.97;;;-140.56;87.37
10482;BME280;5288;42.334;23.876;2023-06-10T05:46:05;56162.09;;;-140.56;87.50
10482;BME280;5288;42.334;23.876;2023-06-10T05:48:32;56183.81;;;-140.56;88.32
10482;BME280;5288;42.334;23.876;2023-06-10T05:50:59;56164.06;;;-140.56;87.79
10482;BME280;5288;42.334;23.876;2023-06-10T05:53:26;56164.06;;;-140.56;86.79
10482;BME280;5288;42.334;23.876;2023-06-10T05:55:56;56148.25;;;-140.56;86.64
10482;BME280;5288;42.334;23.876;2023-06-10T05:58:24;56164.06;;;-140.56;86.44
10482;BME280;5288;42.334;23.876;2023-06-10T06:00:51;56173.94;;;-140.56;85.50
10482;BME280;5288;42.334;23.876;2023-06-10T06:03:18;56128.50;;;-140.56;84.42
10482;BME280;5288;42.334;23.876;2023-06-10T06:05:45;56132.44;;;-140.56;83.83
10482;BME280;5288;42.334;23.876;2023-06-10T06:08:12;56118.59;;;-140.56;83.07
10482;BME280;5288;42.334;23.876;2023-06-10T06:10:43;56124.53;;;-140.56;82.85
10482;BME280;5288;42.334;23.876;2023-06-10T06:13:11;56146.28;;;-140.56;82.43
10482;BME280;5288;42.334;23.876;2023-06-10T06:15:38;56122.56;;;-140.56;82.03
10482;BME280;5288;42.334;23.876;2023-06-10T06:18:05;56148.25;;;-140.56;81.74
10482;BME280;5288;42.334;23.876;2023-06-10T06:20:35;56128.50;;;-140.56;81.12
10482;BME280;5288;42.334;23.876;2023-06-10T06:23:02;56144.31;;;-140.56;81.34
10482;BME280;5288;42.334;23.876;2023-06-10T06:25:29;56104.78;;;-140.56;81.47
10482;BME280;5288;42.334;23.876;2023-06-10T06:27:56;56120.59;;;-140.56;81.24
10482;BME280;5288;42.334;23.876;2023-06-10T06:30:24;56124.53;;;-140.56;81.00
10482;BME280;5288;42.334;23.876;2023-06-10T06:32:51;56096.88;;;-140.56;81.16
10482;BME280;5288;42.334;23.876;2023-06-10T06:35:18;56128.50;;;-140.56;81.30
10482;BME280;5288;42.334;23.876;2023-06-10T06:37:45;56124.53;;;-140.56;81.10
10482;BME280;5288;42.334;23.876;2023-06-10T06:40:12;56102.81;;;-140.56;81.22
10482;BME280;5288;42.334;23.876;2023-06-10T06:42:40;56100.81;;;-140.56;80.51
10482;BME280;5288;42.334;23.876;2023-06-10T06:45:07;56118.59;;;-140.56;79.07
10482;BME280;5288;42.334;23.876;2023-06-10T06:47:36;56069.22;;;-140.56;77.97
10482;BME280;5288;42.334;23.876;2023-06-10T06:50:03;56073.16;;;-140.56;76.91
10482;BME280;5288;42.334;23.876;2023-06-10T06:52:30;56075.13;;;-140.56;72.04
10482;BME280;5288;42.334;23.876;2023-06-10T06:54:57;56063.28;;;-140.56;68.78
10482;BME280;5288;42.334;23.876;2023-06-10T06:57:24;56055.38;;;-140.56;69.38
10482;BME280;5288;42.334;23.876;2023-06-10T06:59:51;56065.25;;;-140.56;68.14
10482;BME280;5288;42.334;23.876;2023-06-10T07:02:18;56073.16;;;-140.56;67.56
10482;BME280;5288;42.334;23.876;2023-06-10T07:04:46;56061.31;;;-140.56;66.63
10482;BME280;5288;42.334;23.876;2023-06-10T07:07:15;56049.44;;;-140.56;68.75
10482;BME280;5288;42.334;23.876;2023-06-10T07:09:42;56071.19;;;-140.56;69.55
10482;BME280;5288;42.334;23.876;2023-06-10T07:12:09;56083.03;;;-140.56;69.90
10482;BME280;5288;42.334;23.876;2023-06-10T07:14:36;56051.41;;;-140.56;71.28
10482;BME280;5288;42.334;23.876;2023-06-10T07:17:04;56047.47;;;-140.56;71.55
10482;BME280;5288;42.334;23.876;2023-06-10T07:19:31;56051.41;;;-140.56;72.09
10482;BME280;5288;42.334;23.876;2023-06-10T07:21:59;56057.34;;;-140.56;73.49
10482;BME280;5288;42.334;23.876;2023-06-10T07:24:26;56092.91;;;-140.56;74.16
10482;BME280;5288;42.334;23.876;2023-06-10T07:26:53;56069.22;;;-140.56;75.32
10482;BME280;5288;42.334;23.876;2023-06-10T07:29:21;56061.31;;;-140.56;76.86
10482;BME280;5288;42.334;23.876;2023-06-10T07:31:48;56077.09;;;-140.56;76.86
10482;BME280;5288;42.334;23.876;2023-06-10T07:34:15;56077.09;;;-140.56;77.45
10482;BME280;5288;42.334;23.876;2023-06-10T07:36:42;56112.69;;;-140.56;77.28
10482;BME280;5288;42.334;23.876;2023-06-10T07:39:11;56081.06;;;-140.56;77.49
10482;BME280;5288;42.334;23.876;2023-06-10T07:41:38;56096.88;;;-140.56;77.78
10482;BME280;5288;42.334;23.876;2023-06-10T07:44:05;56104.78;;;-140.56;77.76
10482;BME280;5288;42.334;23.876;2023-06-10T07:46:32;56092.91;;;-140.56;78.03
10482;BME280;5288;42.334;23.876;2023-06-10T07:49:00;56075.13;;;-140.56;76.99
10482;BME280;5288;42.334;23.876;2023-06-10T07:51:27;56088.97;;;-140.56;76.57
10482;BME280;5288;42.334;23.876;2023-06-10T07:53:54;56069.22;;;-140.56;74.52
10482;BME280;5288;42.334;23.876;2023-06-10T07:56:23;56104.78;;;-140.56;75.55
10482;BME280;5288;42.334;23.876;2023-06-10T07:58:51;56077.09;;;-140.56;75.79
10482;BME280;5288;42.334;23.876;2023-06-10T08:01:19;56059.31;;;-140.56;75.40
10482;BME280;5288;42.334;23.876;2023-06-10T08:03:45;56049.44;;;-140.56;75.47
10482;BME280;5288;42.334;23.876;2023-06-10T08:06:12;56067.22;;;-140.56;74.45
10482;BME280;5288;42.334;23.876;2023-06-10T08:08:39;56069.22;;;-140.56;74.03
10482;BME280;5288;42.334;23.876;2023-06-10T08:11:08;56039.56;;;-140.56;72.30
10482;BME280;5288;42.334;23.876;2023-06-10T08:13:37;56061.31;;;-140.56;66.30
10482;BME280;5288;42.334;23.876;2023-06-10T08:16:05;56090.94;;;-140.56;63.20
10482;BME280;5288;42.334;23.876;2023-06-10T08:18:32;56087.00;;;-140.56;64.11
10482;BME280;5288;42.334;23.876;2023-06-10T08:20:59;56065.25;;;-140.56;67.03
10482;BME280;5288;42.334;23.876;2023-06-10T08:23:26;56096.88;;;-140.56;71.30
10482;BME280;5288;42.334;23.876;2023-06-10T08:25:53;56045.50;;;-140.56;72.12
10482;BME280;5288;42.334;23.876;2023-06-10T08:28:20;56053.41;;;-140.56;72.46
10482;BME280;5288;42.334;23.876;2023-06-10T08:30:50;56085.00;;;-140.56;73.71
10482;BME280;5288;42.334;23.876;2023-06-10T08:33:17;56039.56;;;-140.56;72.50
10482;BME280;5288;42.334;23.876;2023-06-10T08:35:44;56083.03;;;-140.56;70.13
10482;BME280;5288;42.334;23.876;2023-06-10T08:38:11;56063.28;;;-140.56;66.57
10482;BME280;5288;42.334;23.876;2023-06-10T08:40:38;56085.00;;;-140.56;66.05
10482;BME280;5288;42.334;23.876;2023-06-10T08:43:06;56077.09;;;-140.56;66.57
10482;BME280;5288;42.334;23.876;2023-06-10T08:45:35;56081.06;;;-140.56;66.90
10482;BME280;5288;42.334;23.876;2023-06-10T08:48:05;56081.06;;;-140.56;66.97
10482;BME280;5288;42.334;23.876;2023-06-10T08:50:34;56085.00;;;-140.56;68.98
10482;BME280;5288;42.334;23.876;2023-06-10T08:53:04;56087.00;;;-140.56;69.97
10482;BME280;5288;42.334;23.876;2023-06-10T08:55:33;56090.94;;;-140.56;69.55
10482;BME280;5288;42.334;23.876;2023-06-10T08:58:04;56069.22;;;-140.56;70.73
10482;BME280;5288;42.334;23.876;2023-06-10T09:00:32;56108.72;;;-140.56;69.70
10482;BME280;5288;42.334;23.876;2023-06-10T09:02:59;56029.69;;;-140.56;71.93
10482;BME280;5288;42.334;23.876;2023-06-10T09:05:29;56077.09;;;-140.56;71.11
10482;BME280;5288;42.334;23.876;2023-06-10T09:07:58;56059.31;;;-140.56;69.84
10482;BME280;5288;42.334;23.876;2023-06-10T09:10:27;56071.19;;;-140.56;69.08
10482;BME280;5288;42.334;23.876;2023-06-10T09:12:54;56053.41;;;-140.56;69.81
10482;BME280;5288;42.334;23.876;2023-06-10T09:15:21;56061.31;;;-140.56;66.15
10482;BME280;5288;42.334;23.876;2023-06-10T09:17:48;56053.41;;;-140.56;67.71
10482;BME280;5288;42.334;23.876;2023-06-10T09:20:15;56039.56;;;-140.56;68.23
10482;BME280;5288;42.334;23.876;2023-06-10T09:22:44;56031.66;;;-140.56;65.19
10482;BME280;5288;42.334;23.876;2023-06-10T09:25:12;56007.94;;;-140.56;65.34
10482;BME280;5288;42.334;23.876;2023-06-10T09:27:46;56045.50;;;-140.56;60.35
10482;BME280;5288;42.334;23.876;2023-06-10T09:30:25;56041.53;;;-140.56;60.35
10482;BME280;5288;42.334;23.876;2023-06-10T09:32:53;56029.69;;;-140.56;59.80
10482;BME280;5288;42.334;23.876;2023-06-10T09:35:22;56053.41;;;-140.56;58.57
10482;BME280;5288;42.334;23.876;2023-06-10T09:37:52;56000.03;;;-140.56;58.79
10482;BME280;5288;42.334;23.876;2023-06-10T09:40:19;56031.66;;;-140.56;54.55
10482;BME280;5288;42.334;23.876;2023-06-10T09:42:52;55988.19;;;-140.56;57.31
10482;BME280;5288;42.334;23.876;2023-06-10T09:45:20;55990.16;;;-140.56;56.51
10482;BME280;5288;42.334;23.876;2023-06-10T09:47:51;56009.91;;;-140.56;54.38
10482;BME280;5288;42.334;23.876;2023-06-10T09:50:18;56035.63;;;-140.56;55.85
10482;BME280;5288;42.334;23.876;2023-06-10T09:52:46;56061.31;;;-140.56;54.18
10482;BME280;5288;42.334;23.876;2023-06-10T09:55:15;56023.75;;;-140.56;54.35
10482;BME280;5288;42.334;23.876;2023-06-10T09:57:42;55990.16;;;-140.56;54.40
10482;BME280;5288;42.334;23.876;2023-06-10T10:00:14;55992.13;;;-140.56;54.34
10482;BME280;5288;42.334;23.876;2023-06-10T10:02:46;55980.28;;;-140.56;53.28
10482;BME280;5288;42.334;23.876;2023-06-10T10:05:14;55992.13;;;-140.56;51.35
10482;BME280;5288;42.334;23.876;2023-06-10T10:07:41;55956.56;;;-140.56;53.64
10482;BME280;5288;42.334;23.876;2023-06-10T10:10:09;55954.59;;;-140.56;50.38
10482;BME280;5288;42.334;23.876;2023-06-10T10:12:38;55948.66;;;-140.56;48.70
10482;BME280;5288;42.334;23.876;2023-06-10T10:15:06;55968.41;;;-140.56;48.59
10482;BME280;5288;42.334;23.876;2023-06-10T10:17:34;55936.81;;;-140.56;50.11
10482;BME280;5288;42.334;23.876;2023-06-10T10:20:05;55970.41;;;-140.56;48.32
10482;BME280;5288;42.334;23.876;2023-06-10T10:22:38;55930.88;;;-140.56;48.36
10482;BME280;5288;42.334;23.876;2023-06-10T10:25:10;55936.81;;;-140.56;44.18
10482;BME280;5288;42.334;23.876;2023-06-10T10:27:43;55930.88;;;-140.56;45.43
10482;BME280;5288;42.334;23.876;2023-06-10T10:30:11;55926.94;;;-140.56;45.43
10482;BME280;5288;42.334;23.876;2023-06-10T10:32:45;55930.88;;;-140.56;44.33
10482;BME280;5288;42.334;23.876;2023-06-10T10:35:21;55922.97;;;-140.56;43.01
10482;BME280;5288;42.334;23.876;2023-06-10T10:37:50;55915.06;;;-140.56;44.37
10482;BME280;5288;42.334;23.876;2023-06-10T10:40:18;55924.94;;;-140.56;42.47
10482;BME280;5288;42.334;23.876;2023-06-10T10:42:47;55909.13;;;-140.56;42.08
10482;BME280;5288;42.334;23.876;2023-06-10T10:45:15;55895.31;;;-140.56;41.53
10482;BME280;5288;42.334;23.876;2023-06-10T10:47:43;55879.50;;;-140.56;42.74
10482;BME280;5288;42.334;23.876;2023-06-10T10:50:14;55921.00;;;-140.56;43.05
10482;BME280;5288;42.334;23.876;2023-06-10T10:52:53;55926.94;;;-140.56;42.41
10482;BME280;5288;42.334;23.876;2023-06-10T10:55:22;55942.72;;;-140.56;44.35
10482;BME280;5288;42.334;23.876;2023-06-10T10:57:58;55962.50;;;-140.56;43.86
10482;BME280;5288;42.334;23.876;2023-06-10T11:00:27;55919.03;;;-140.56;44.77
10482;BME280;5288;42.334;23.876;2023-06-10T11:02:58;55924.94;;;-140.56;43.40
10482;BME280;5288;42.334;23.876;2023-06-10T11:05:37;55926.94;;;-140.56;42.79
10482;BME280;5288;42.334;23.876;2023-06-10T11:08:05;55907.16;;;-140.56;42.40
10482;BME280;5288;42.334;23.876;2023-06-10T11:10:34;55877.53;;;-140.56;42.60
10482;BME280;5288;42.334;23.876;2023-06-10T11:13:08;55877.53;;;-140.56;41.71
10482;BME280;5288;42.334;23.876;2023-06-10T11:15:39;55893.34;;;-140.56;42.68
10482;BME280;5288;42.334;23.876;2023-06-10T11:18:11;55867.63;;;-140.56;42.51
10482;BME280;5288;42.334;23.876;2023-06-10T11:20:43;55859.75;;;-140.56;40.58
10482;BME280;5288;42.334;23.876;2023-06-10T11:23:10;55836.03;;;-140.56;42.33
10482;BME280;5288;42.334;23.876;2023-06-10T11:25:39;55832.06;;;-140.56;41.46
10482;BME280;5288;42.334;23.876;2023-06-10T11:28:17;55855.78;;;-140.56;41.07
10482;BME280;5288;42.334;23.876;2023-06-10T11:30:44;55913.09;;;-140.56;43.05
10482;BME280;5288;42.334;23.876;2023-06-10T11:33:15;55883.44;;;-140.56;44.08
10482;BME280;5288;42.334;23.876;2023-06-10T11:35:42;55871.59;;;-140.56;43.29
10482;BME280;5288;42.334;23.876;2023-06-10T11:38:10;55859.75;;;-140.56;43.64
10482;BME280;5288;42.334;23.876;2023-06-10T11:40:37;55899.25;;;-140.56;45.33
10482;BME280;5288;42.334;23.876;2023-06-10T11:43:05;55924.94;;;-140.56;44.17
10482;BME280;5288;42.334;23.876;2023-06-10T11:45:34;55919.03;;;-140.56;45.37
10482;BME280;5288;42.334;23.876;2023-06-10T11:48:01;55940.75;;;-140.56;45.89
10482;BME280;5288;42.334;23.876;2023-06-10T11:50:29;55934.81;;;-140.56;46.48
10482;BME280;5288;42.334;23.876;2023-06-10T11:52:56;55907.16;;;-140.56;45.58
10482;BME280;5288;42.334;23.876;2023-06-10T11:55:24;55909.13;;;-140.56;45.09
10482;BME280;5288;42.334;23.876;2023-06-10T11:57:51;55919.03;;;-140.56;44.66
10482;BME280;5288;42.334;23.876;2023-06-10T12:00:23;55919.03;;;-140.56;45.97
10482;BME280;5288;42.334;23.876;2023-06-10T12:03:01;55891.34;;;-140.56;45.21
10482;BME280;5288;42.334;23.876;2023-06-10T12:05:28;55932.84;;;-140.56;46.15
10482;BME280;5288;42.334;23.876;2023-06-10T12:08:08;55952.63;;;-140.56;43.79
10482;BME280;5288;42.334;23.876;2023-06-10T12:10:40;55913.09;;;-140.56;43.89
10482;BME280;5288;42.334;23.876;2023-06-10T12:13:07;55913.09;;;-140.56;44.68
10482;BME280;5288;42.334;23.876;2023-06-10T12:15:35;55893.34;;;-140.56;45.17
10482;BME280;5288;42.334;23.876;2023-06-10T12:18:05;55915.06;;;-140.56;45.90
10482;BME280;5288;42.334;23.876;2023-06-10T12:20:33;55917.03;;;-140.56;46.09
10482;BME280;5288;42.334;23.876;2023-06-10T12:23:00;55932.84;;;-140.56;45.08
10482;BME280;5288;42.334;23.876;2023-06-10T12:25:35;55924.94;;;-140.56;46.23
10482;BME280;5288;42.334;23.876;2023-06-10T12:28:04;55946.69;;;-140.56;47.07
10482;BME280;5288;42.334;23.876;2023-06-10T12:30:32;55924.94;;;-140.56;48.11
10482;BME280;5288;42.334;23.876;2023-06-10T12:32:59;55934.81;;;-140.56;48.69
10482;BME280;5288;42.334;23.876;2023-06-10T12:35:28;55922.97;;;-140.56;47.28
10482;BME280;5288;42.334;23.876;2023-06-10T12:37:56;55919.03;;;-140.56;47.32
10482;BME280;5288;42.334;23.876;2023-06-10T12:40:27;55928.91;;;-140.56;47.21
10482;BME280;5288;42.334;23.876;2023-06-10T12:42:55;55952.63;;;-140.56;48.19
10482;BME280;5288;42.334;23.876;2023-06-10T12:45:29;55976.31;;;-140.56;49.08
10482;BME280;5288;42.334;23.876;2023-06-10T12:48:07;55932.84;;;-140.56;47.08